sensor_id;sensor_type;location;lat;lon;timestamp;P1;durP1;ratioP1;P2;durP2;ratioP2
20322;SDS011;10319;52.206;20.996;2023-03-01T00:02:13;56.70;;;22.47;;
20322;SDS011;10319;52.206;20.996;2023-03-01T00:04:38;58.10;;;23.53;;
20322;SDS011;10319;52.206;20.996;2023-03-01T00:07:03;58.23;;;24.27;;
20322;SDS011;10319;52.206;20.996;2023-03-01T00:09:28;59.43;;;24.13;;
20322;SDS011;10319;52.206;20.996;2023-03-01T00:11:54;58.77;;;24.03;;
20322;SDS011;10319;52.206;20.996;2023-03-01T00:14:19;59.10;;;24.33;;
20322;SDS011;10319;52.206;20.996;2023-03-01T00:16:44;56.63;;;24.30;;
20322;SDS011;10319;52.206;20.996;2023-03-01T00:19:14;65.60;;;25.37;;
20322;SDS011;10319;52.206;20.996;2023-03-01T00:21:40;58.97;;;24.87;;
20322;SDS011;10319;52.206;20.996;2023-03-01T00:24:05;61.33;;;25.43;;
20322;SDS011;10319;52.206;20.996;2023-03-01T00:26:30;60.73;;;24.07;;
20322;SDS011;10319;52.206;20.996;2023-03-01T00:28:56;63.60;;;24.70;;
20322;SDS011;10319;52.206;20.996;2023-03-01T00:31:22;60.33;;;25.50;;
20322;SDS011;10319;52.206;20.996;2023-03-01T00:33:48;59.30;;;25.03;;
20322;SDS011;10319;52.206;20.996;2023-03-01T00:36:16;58.60;;;24.27;;
20322;SDS011;10319;52.206;20.996;2023-03-01T00:38:43;60.33;;;24.03;;
20322;SDS011;10319;52.206;20.996;2023-03-01T00:41:09;57.87;;;24.50;;
20322;SDS011;10319;52.206;20.996;2023-03-01T00:43:35;62.93;;;24.33;;
20322;SDS011;10319;52.206;20.996;2023-03-01T00:46:08;60.27;;;24.47;;
20322;SDS011;10319;52.206;20.996;2023-03-01T00:48:34;58.60;;;24.37;;
20322;SDS011;10319;52.206;20.996;2023-03-01T00:53:31;59.17;;;23.70;;
20322;SDS011;10319;52.206;20.996;2023-03-01T00:55:57;53.63;;;21.90;;
20322;SDS011;10319;52.206;20.996;2023-03-01T00:58:22;54.90;;;23.70;;
20322;SDS011;10319;52.206;20.996;2023-03-01T01:00:48;54.83;;;22.47;;
20322;SDS011;10319;52.206;20.996;2023-03-01T01:03:13;48.63;;;21.17;;
20322;SDS011;10319;52.206;20.996;2023-03-01T01:05:38;48.97;;;20.67;;
20322;SDS011;10319;52.206;20.996;2023-03-01T01:08:03;51.30;;;21.03;;
20322;SDS011;10319;52.206;20.996;2023-03-01T01:10:29;47.67;;;19.40;;
20322;SDS011;10319;52.206;20.996;2023-03-01T01:12:54;56.47;;;22.03;;
20322;SDS011;10319;52.206;20.996;2023-03-01T01:15:19;58.50;;;23.17;;
20322;SDS011;10319;52.206;20.996;2023-03-01T01:17:45;54.23;;;22.33;;
20322;SDS011;10319;52.206;20.996;2023-03-01T01:20:10;56.63;;;22.13;;
20322;SDS011;10319;52.206;20.996;2023-03-01T01:22:36;51.87;;;21.53;;
20322;SDS011;10319;52.206;20.996;2023-03-01T01:25:01;46.53;;;18.17;;
20322;SDS011;10319;52.206;20.996;2023-03-01T01:27:26;53.40;;;20.50;;
20322;SDS011;10319;52.206;20.996;2023-03-01T01:29:52;52.47;;;22.23;;
20322;SDS011;10319;52.206;20.996;2023-03-01T01:32:17;53.30;;;22.63;;
20322;SDS011;10319;52.206;20.996;2023-03-01T01:34:43;52.10;;;20.87;;
20322;SDS011;10319;52.206;20.996;2023-03-01T01:37:08;49.87;;;19.87;;
20322;SDS011;10319;52.206;20.996;2023-03-01T01:39:36;50.23;;;20.83;;
20322;SDS011;10319;52.206;20.996;2023-03-01T01:42:01;54.03;;;20.50;;
20322;SDS011;10319;52.206;20.996;2023-03-01T01:44:27;54.93;;;22.23;;
20322;SDS011;10319;52.206;20.996;2023-03-01T01:46:55;46.83;;;19.80;;
20322;SDS011;10319;52.206;20.996;2023-03-01T01:51:47;48.77;;;19.43;;
20322;SDS011;10319;52.206;20.996;2023-03-01T01:54:15;49.43;;;19.80;;
20322;SDS011;10319;52.206;20.996;2023-03-01T01:56:44;55.37;;;20.40;;
20322;SDS011;10319;52.206;20.996;2023-03-01T01:59:12;48.67;;;18.57;;
20322;SDS011;10319;52.206;20.996;2023-03-01T02:01:37;47.40;;;19.23;;
20322;SDS011;10319;52.206;20.996;2023-03-01T02:04:03;45.53;;;17.10;;
20322;SDS011;10319;52.206;20.996;2023-03-01T02:06:39;49.87;;;18.83;;
20322;SDS011;10319;52.206;20.996;2023-03-01T02:09:07;47.63;;;18.07;;
20322;SDS011;10319;52.206;20.996;2023-03-01T02:11:33;44.63;;;17.73;;
20322;SDS011;10319;52.206;20.996;2023-03-01T02:13:58;43.53;;;18.00;;
20322;SDS011;10319;52.206;20.996;2023-03-01T02:16:24;46.00;;;18.47;;
20322;SDS011;10319;52.206;20.996;2023-03-01T02:18:50;51.83;;;21.23;;
20322;SDS011;10319;52.206;20.996;2023-03-01T02:24:02;48.47;;;19.77;;
20322;SDS011;10319;52.206;20.996;2023-03-01T02:28:57;51.77;;;21.67;;
20322;SDS011;10319;52.206;20.996;2023-03-01T02:31:23;56.60;;;22.70;;
20322;SDS011;10319;52.206;20.996;2023-03-01T02:34:07;57.17;;;22.60;;
20322;SDS011;10319;52.206;20.996;2023-03-01T02:36:37;53.57;;;22.13;;
20322;SDS011;10319;52.206;20.996;2023-03-01T02:39:03;57.60;;;22.83;;
20322;SDS011;10319;52.206;20.996;2023-03-01T02:41:30;56.77;;;22.43;;
20322;SDS011;10319;52.206;20.996;2023-03-01T02:43:56;56.57;;;21.63;;
20322;SDS011;10319;52.206;20.996;2023-03-01T02:46:23;58.40;;;21.83;;
20322;SDS011;10319;52.206;20.996;2023-03-01T02:48:49;50.60;;;20.60;;
20322;SDS011;10319;52.206;20.996;2023-03-01T02:56:27;56.80;;;21.60;;
20322;SDS011;10319;52.206;20.996;2023-03-01T02:58:53;53.37;;;20.97;;
20322;SDS011;10319;52.206;20.996;2023-03-01T03:01:19;50.87;;;20.30;;
20322;SDS011;10319;52.206;20.996;2023-03-01T03:03:45;57.23;;;22.90;;
20322;SDS011;10319;52.206;20.996;2023-03-01T03:06:10;57.00;;;22.83;;
20322;SDS011;10319;52.206;20.996;2023-03-01T03:08:36;60.37;;;24.00;;
20322;SDS011;10319;52.206;20.996;2023-03-01T03:11:01;58.60;;;23.13;;
20322;SDS011;10319;52.206;20.996;2023-03-01T03:13:26;58.00;;;22.40;;
20322;SDS011;10319;52.206;20.996;2023-03-01T03:15:53;57.93;;;22.20;;
20322;SDS011;10319;52.206;20.996;2023-03-01T03:18:19;60.30;;;22.23;;
20322;SDS011;10319;52.206;20.996;2023-03-01T03:20:44;52.73;;;21.50;;
20322;SDS011;10319;52.206;20.996;2023-03-01T03:23:10;52.40;;;21.00;;
20322;SDS011;10319;52.206;20.996;2023-03-01T03:25:35;57.27;;;23.20;;
20322;SDS011;10319;52.206;20.996;2023-03-01T03:28:03;56.73;;;21.70;;
20322;SDS011;10319;52.206;20.996;2023-03-01T03:30:35;60.30;;;22.20;;
20322;SDS011;10319;52.206;20.996;2023-03-01T03:33:00;57.73;;;22.80;;
20322;SDS011;10319;52.206;20.996;2023-03-01T03:35:30;57.80;;;23.43;;
20322;SDS011;10319;52.206;20.996;2023-03-01T03:37:56;49.67;;;20.83;;
20322;SDS011;10319;52.206;20.996;2023-03-01T03:40:40;58.67;;;21.40;;
20322;SDS011;10319;52.206;20.996;2023-03-01T03:43:06;53.80;;;21.63;;
20322;SDS011;10319;52.206;20.996;2023-03-01T03:45:32;53.23;;;20.40;;
20322;SDS011;10319;52.206;20.996;2023-03-01T03:47:58;50.83;;;21.30;;
20322;SDS011;10319;52.206;20.996;2023-03-01T03:50:23;54.80;;;21.03;;
20322;SDS011;10319;52.206;20.996;2023-03-01T03:52:49;54.03;;;20.10;;
20322;SDS011;10319;52.206;20.996;2023-03-01T03:55:14;51.80;;;21.43;;
20322;SDS011;10319;52.206;20.996;2023-03-01T03:57:44;56.97;;;21.90;;
20322;SDS011;10319;52.206;20.996;2023-03-01T04:00:10;53.93;;;21.83;;
20322;SDS011;10319;52.206;20.996;2023-03-01T04:02:47;57.73;;;21.87;;
20322;SDS011;10319;52.206;20.996;2023-03-01T04:05:13;52.00;;;21.30;;
20322;SDS011;10319;52.206;20.996;2023-03-01T04:07:39;57.70;;;21.00;;
20322;SDS011;10319;52.206;20.996;2023-03-01T04:10:06;53.00;;;21.07;;
20322;SDS011;10319;52.206;20.996;2023-03-01T04:12:32;59.17;;;20.77;;
20322;SDS011;10319;52.206;20.996;2023-03-01T04:14:59;54.27;;;21.30;;
20322;SDS011;10319;52.206;20.996;2023-03-01T04:17:24;56.30;;;21.67;;
20322;SDS011;10319;52.206;20.996;2023-03-01T04:19:49;58.13;;;21.77;;
20322;SDS011;10319;52.206;20.996;2023-03-01T04:22:14;58.97;;;21.87;;
20322;SDS011;10319;52.206;20.996;2023-03-01T04:24:43;53.60;;;21.37;;
20322;SDS011;10319;52.206;20.996;2023-03-01T04:27:08;57.07;;;22.00;;
20322;SDS011;10319;52.206;20.996;2023-03-01T04:29:33;53.17;;;21.57;;
20322;SDS011;10319;52.206;20.996;2023-03-01T04:31:59;52.33;;;20.70;;
20322;SDS011;10319;52.206;20.996;2023-03-01T04:34:24;53.97;;;21.80;;
20322;SDS011;10319;52.206;20.996;2023-03-01T04:36:51;54.07;;;21.23;;
20322;SDS011;10319;52.206;20.996;2023-03-01T04:39:17;55.37;;;22.63;;
20322;SDS011;10319;52.206;20.996;2023-03-01T04:41:42;55.60;;;23.00;;
20322;SDS011;10319;52.206;20.996;2023-03-01T04:44:10;60.17;;;23.13;;
20322;SDS011;10319;52.206;20.996;2023-03-01T04:46:36;56.03;;;22.63;;
20322;SDS011;10319;52.206;20.996;2023-03-01T04:49:02;57.67;;;23.17;;
20322;SDS011;10319;52.206;20.996;2023-03-01T04:51:27;55.87;;;22.97;;
20322;SDS011;10319;52.206;20.996;2023-03-01T04:53:52;59.20;;;22.53;;
20322;SDS011;10319;52.206;20.996;2023-03-01T04:56:18;58.57;;;22.60;;
20322;SDS011;10319;52.206;20.996;2023-03-01T04:58:43;56.70;;;22.30;;
20322;SDS011;10319;52.206;20.996;2023-03-01T05:01:13;57.30;;;22.30;;
20322;SDS011;10319;52.206;20.996;2023-03-01T05:03:42;58.43;;;22.27;;
20322;SDS011;10319;52.206;20.996;2023-03-01T05:06:08;52.40;;;22.43;;
20322;SDS011;10319;52.206;20.996;2023-03-01T05:08:33;57.03;;;22.73;;
20322;SDS011;10319;52.206;20.996;2023-03-01T05:11:01;55.00;;;21.50;;
20322;SDS011;10319;52.206;20.996;2023-03-01T05:13:27;54.73;;;21.50;;
20322;SDS011;10319;52.206;20.996;2023-03-01T05:15:54;53.70;;;21.03;;
20322;SDS011;10319;52.206;20.996;2023-03-01T05:18:20;55.83;;;22.60;;
20322;SDS011;10319;52.206;20.996;2023-03-01T05:20:45;49.60;;;21.10;;
20322;SDS011;10319;52.206;20.996;2023-03-01T05:23:11;59.10;;;22.60;;
20322;SDS011;10319;52.206;20.996;2023-03-01T05:25:36;60.37;;;22.97;;
20322;SDS011;10319;52.206;20.996;2023-03-01T05:28:05;52.73;;;21.13;;
20322;SDS011;10319;52.206;20.996;2023-03-01T05:30:33;55.80;;;22.33;;
20322;SDS011;10319;52.206;20.996;2023-03-01T05:32:59;60.27;;;23.23;;
20322;SDS011;10319;52.206;20.996;2023-03-01T05:35:24;52.87;;;21.60;;
20322;SDS011;10319;52.206;20.996;2023-03-01T05:37:49;57.37;;;22.00;;
20322;SDS011;10319;52.206;20.996;2023-03-01T05:40:16;51.27;;;21.73;;
20322;SDS011;10319;52.206;20.996;2023-03-01T05:42:47;55.70;;;21.07;;
20322;SDS011;10319;52.206;20.996;2023-03-01T05:45:12;55.63;;;21.53;;
20322;SDS011;10319;52.206;20.996;2023-03-01T05:47:39;51.23;;;20.43;;
20322;SDS011;10319;52.206;20.996;2023-03-01T05:50:08;56.77;;;20.63;;
20322;SDS011;10319;52.206;20.996;2023-03-01T05:52:34;49.20;;;20.67;;
20322;SDS011;10319;52.206;20.996;2023-03-01T05:54:59;52.50;;;21.10;;
20322;SDS011;10319;52.206;20.996;2023-03-01T05:57:27;53.40;;;19.93;;
20322;SDS011;10319;52.206;20.996;2023-03-01T05:59:53;54.27;;;19.97;;
20322;SDS011;10319;52.206;20.996;2023-03-01T06:02:18;55.37;;;20.97;;
20322;SDS011;10319;52.206;20.996;2023-03-01T06:04:43;53.57;;;20.47;;
20322;SDS011;10319;52.206;20.996;2023-03-01T06:07:08;52.33;;;20.37;;
20322;SDS011;10319;52.206;20.996;2023-03-01T06:09:34;52.07;;;21.07;;
20322;SDS011;10319;52.206;20.996;2023-03-01T06:11:59;53.07;;;21.40;;
20322;SDS011;10319;52.206;20.996;2023-03-01T06:14:24;50.43;;;20.80;;
20322;SDS011;10319;52.206;20.996;2023-03-01T06:16:50;49.50;;;19.70;;
20322;SDS011;10319;52.206;20.996;2023-03-01T06:19:15;50.10;;;19.63;;
20322;SDS011;10319;52.206;20.996;2023-03-01T06:21:40;51.97;;;20.67;;
20322;SDS011;10319;52.206;20.996;2023-03-01T06:24:05;51.63;;;21.00;;
20322;SDS011;10319;52.206;20.996;2023-03-01T06:26:32;59.40;;;20.97;;
20322;SDS011;10319;52.206;20.996;2023-03-01T06:28:57;50.30;;;21.13;;
20322;SDS011;10319;52.206;20.996;2023-03-01T06:31:22;52.37;;;20.70;;
20322;SDS011;10319;52.206;20.996;2023-03-01T06:33:48;52.63;;;20.83;;
20322;SDS011;10319;52.206;20.996;2023-03-01T06:36:13;51.60;;;20.63;;
20322;SDS011;10319;52.206;20.996;2023-03-01T06:38:38;49.47;;;20.03;;
20322;SDS011;10319;52.206;20.996;2023-03-01T06:41:05;55.93;;;20.93;;
20322;SDS011;10319;52.206;20.996;2023-03-01T06:43:31;49.20;;;19.40;;
20322;SDS011;10319;52.206;20.996;2023-03-01T06:45:57;45.70;;;19.17;;
20322;SDS011;10319;52.206;20.996;2023-03-01T06:48:22;52.80;;;20.60;;
20322;SDS011;10319;52.206;20.996;2023-03-01T06:50:47;52.97;;;21.30;;
20322;SDS011;10319;52.206;20.996;2023-03-01T06:53:13;54.37;;;20.67;;
20322;SDS011;10319;52.206;20.996;2023-03-01T06:55:38;48.47;;;19.87;;
20322;SDS011;10319;52.206;20.996;2023-03-01T06:58:03;49.53;;;20.43;;
20322;SDS011;10319;52.206;20.996;2023-03-01T07:00:29;49.87;;;20.37;;
20322;SDS011;10319;52.206;20.996;2023-03-01T07:02:54;47.60;;;19.57;;
20322;SDS011;10319;52.206;20.996;2023-03-01T07:05:20;48.13;;;19.67;;
20322;SDS011;10319;52.206;20.996;2023-03-01T07:07:45;53.97;;;21.93;;
20322;SDS011;10319;52.206;20.996;2023-03-01T07:10:11;51.00;;;21.17;;
20322;SDS011;10319;52.206;20.996;2023-03-01T07:12:36;50.27;;;20.30;;
20322;SDS011;10319;52.206;20.996;2023-03-01T07:15:02;48.93;;;19.83;;
20322;SDS011;10319;52.206;20.996;2023-03-01T07:17:27;49.07;;;20.33;;
20322;SDS011;10319;52.206;20.996;2023-03-01T07:19:53;46.67;;;20.03;;
20322;SDS011;10319;52.206;20.996;2023-03-01T07:22:18;44.87;;;19.43;;
20322;SDS011;10319;52.206;20.996;2023-03-01T07:24:43;47.93;;;19.60;;
20322;SDS011;10319;52.206;20.996;2023-03-01T07:27:09;47.07;;;19.40;;
20322;SDS011;10319;52.206;20.996;2023-03-01T07:29:34;48.90;;;19.53;;
20322;SDS011;10319;52.206;20.996;2023-03-01T07:32:01;49.83;;;19.13;;
20322;SDS011;10319;52.206;20.996;2023-03-01T07:34:26;46.13;;;17.60;;
20322;SDS011;10319;52.206;20.996;2023-03-01T07:36:51;42.67;;;17.73;;
20322;SDS011;10319;52.206;20.996;2023-03-01T07:39:17;43.43;;;18.13;;
20322;SDS011;10319;52.206;20.996;2023-03-01T07:41:42;43.03;;;17.90;;
20322;SDS011;10319;52.206;20.996;2023-03-01T07:44:07;44.83;;;18.50;;
20322;SDS011;10319;52.206;20.996;2023-03-01T07:46:33;45.03;;;18.33;;
20322;SDS011;10319;52.206;20.996;2023-03-01T07:48:58;45.53;;;17.07;;
20322;SDS011;10319;52.206;20.996;2023-03-01T07:51:23;44.00;;;18.37;;
20322;SDS011;10319;52.206;20.996;2023-03-01T07:53:49;46.03;;;17.30;;
20322;SDS011;10319;52.206;20.996;2023-03-01T07:56:14;42.17;;;17.47;;
20322;SDS011;10319;52.206;20.996;2023-03-01T07:58:42;42.70;;;17.07;;
20322;SDS011;10319;52.206;20.996;2023-03-01T08:01:08;36.77;;;15.27;;
20322;SDS011;10319;52.206;20.996;2023-03-01T08:03:34;39.67;;;16.80;;
20322;SDS011;10319;52.206;20.996;2023-03-01T08:06:00;39.73;;;15.77;;
20322;SDS011;10319;52.206;20.996;2023-03-01T08:08:26;39.20;;;15.47;;
20322;SDS011;10319;52.206;20.996;2023-03-01T08:10:51;39.60;;;15.80;;
20322;SDS011;10319;52.206;20.996;2023-03-01T08:13:16;32.90;;;14.03;;
20322;SDS011;10319;52.206;20.996;2023-03-01T08:15:47;34.93;;;14.43;;
20322;SDS011;10319;52.206;20.996;2023-03-01T08:18:12;32.87;;;12.80;;
20322;SDS011;10319;52.206;20.996;2023-03-01T08:20:37;33.10;;;12.87;;
20322;SDS011;10319;52.206;20.996;2023-03-01T08:23:02;36.97;;;14.93;;
20322;SDS011;10319;52.206;20.996;2023-03-01T08:25:28;36.20;;;14.23;;
20322;SDS011;10319;52.206;20.996;2023-03-01T08:27:53;36.13;;;14.53;;
20322;SDS011;10319;52.206;20.996;2023-03-01T08:30:21;32.43;;;13.17;;
20322;SDS011;10319;52.206;20.996;2023-03-01T08:32:48;32.80;;;13.27;;
20322;SDS011;10319;52.206;20.996;2023-03-01T08:35:14;33.73;;;13.33;;
20322;SDS011;10319;52.206;20.996;2023-03-01T08:37:39;36.90;;;14.57;;
20322;SDS011;10319;52.206;20.996;2023-03-01T08:40:04;32.30;;;13.53;;
20322;SDS011;10319;52.206;20.996;2023-03-01T08:42:32;36.03;;;13.80;;
20322;SDS011;10319;52.206;20.996;2023-03-01T08:44:57;33.07;;;13.87;;
20322;SDS011;10319;52.206;20.996;2023-03-01T08:47:22;32.47;;;13.93;;
20322;SDS011;10319;52.206;20.996;2023-03-01T08:49:49;34.10;;;14.23;;
20322;SDS011;10319;52.206;20.996;2023-03-01T08:52:14;34.87;;;14.67;;
20322;SDS011;10319;52.206;20.996;2023-03-01T08:54:39;34.93;;;13.60;;
20322;SDS011;10319;52.206;20.996;2023-03-01T08:57:05;33.17;;;13.50;;
20322;SDS011;10319;52.206;20.996;2023-03-01T08:59:30;32.00;;;13.50;;
20322;SDS011;10319;52.206;20.996;2023-03-01T09:02:00;37.50;;;15.00;;
20322;SDS011;10319;52.206;20.996;2023-03-01T09:04:25;36.80;;;14.40;;
20322;SDS011;10319;52.206;20.996;2023-03-01T09:06:53;35.80;;;14.63;;
20322;SDS011;10319;52.206;20.996;2023-03-01T09:09:21;34.80;;;13.77;;
20322;SDS011;10319;52.206;20.996;2023-03-01T09:11:46;35.50;;;13.67;;
20322;SDS011;10319;52.206;20.996;2023-03-01T09:14:12;35.30;;;13.67;;
20322;SDS011;10319;52.206;20.996;2023-03-01T09:16:37;34.13;;;14.30;;
20322;SDS011;10319;52.206;20.996;2023-03-01T09:19:03;35.20;;;14.43;;
20322;SDS011;10319;52.206;20.996;2023-03-01T09:21:28;34.60;;;13.43;;
20322;SDS011;10319;52.206;20.996;2023-03-01T09:23:55;30.33;;;12.43;;
20322;SDS011;10319;52.206;20.996;2023-03-01T09:26:21;32.17;;;13.23;;
20322;SDS011;10319;52.206;20.996;2023-03-01T09:28:47;33.47;;;13.27;;
20322;SDS011;10319;52.206;20.996;2023-03-01T09:31:13;29.50;;;12.30;;
20322;SDS011;10319;52.206;20.996;2023-03-01T09:33:38;31.97;;;12.70;;
20322;SDS011;10319;52.206;20.996;2023-03-01T09:36:05;30.67;;;11.63;;
20322;SDS011;10319;52.206;20.996;2023-03-01T09:38:37;33.83;;;13.37;;
20322;SDS011;10319;52.206;20.996;2023-03-01T09:41:02;30.10;;;12.73;;
20322;SDS011;10319;52.206;20.996;2023-03-01T09:46:05;31.30;;;11.53;;
20322;SDS011;10319;52.206;20.996;2023-03-01T09:48:34;28.70;;;11.90;;
20322;SDS011;10319;52.206;20.996;2023-03-01T09:51:02;29.53;;;11.07;;
20322;SDS011;10319;52.206;20.996;2023-03-01T09:53:35;31.03;;;11.73;;
20322;SDS011;10319;52.206;20.996;2023-03-01T09:56:20;28.23;;;11.07;;
20322;SDS011;10319;52.206;20.996;2023-03-01T09:58:48;30.40;;;11.47;;
20322;SDS011;10319;52.206;20.996;2023-03-01T10:06:31;30.60;;;10.83;;
20322;SDS011;10319;52.206;20.996;2023-03-01T10:08:57;29.23;;;10.33;;
20322;SDS011;10319;52.206;20.996;2023-03-01T10:11:25;26.10;;;9.63;;
20322;SDS011;10319;52.206;20.996;2023-03-01T10:16:40;26.47;;;9.70;;
20322;SDS011;10319;52.206;20.996;2023-03-01T10:19:09;28.23;;;10.40;;
20322;SDS011;10319;52.206;20.996;2023-03-01T10:21:38;27.57;;;10.17;;
20322;SDS011;10319;52.206;20.996;2023-03-01T10:24:13;27.60;;;10.33;;
20322;SDS011;10319;52.206;20.996;2023-03-01T10:26:51;24.80;;;9.17;;
20322;SDS011;10319;52.206;20.996;2023-03-01T10:29:18;26.07;;;9.30;;
20322;SDS011;10319;52.206;20.996;2023-03-01T10:31:48;24.23;;;9.80;;
20322;SDS011;10319;52.206;20.996;2023-03-01T10:34:19;25.53;;;9.70;;
20322;SDS011;10319;52.206;20.996;2023-03-01T10:36:47;24.00;;;9.23;;
20322;SDS011;10319;52.206;20.996;2023-03-01T10:39:14;27.40;;;9.43;;
20322;SDS011;10319;52.206;20.996;2023-03-01T10:41:56;26.57;;;9.17;;
20322;SDS011;10319;52.206;20.996;2023-03-01T10:46:59;26.63;;;9.53;;
20322;SDS011;10319;52.206;20.996;2023-03-01T10:49:26;24.13;;;8.87;;
20322;SDS011;10319;52.206;20.996;2023-03-01T10:51:51;25.17;;;8.47;;
20322;SDS011;10319;52.206;20.996;2023-03-01T10:57:00;24.63;;;9.30;;
20322;SDS011;10319;52.206;20.996;2023-03-01T11:03:01;27.20;;;8.20;;
20322;SDS011;10319;52.206;20.996;2023-03-01T11:04:55;22.30;;;8.10;;
20322;SDS011;10319;52.206;20.996;2023-03-01T11:07:21;24.47;;;9.23;;
20322;SDS011;10319;52.206;20.996;2023-03-01T11:09:46;22.57;;;7.53;;
20322;SDS011;10319;52.206;20.996;2023-03-01T11:12:13;20.97;;;7.37;;
20322;SDS011;10319;52.206;20.996;2023-03-01T11:14:39;20.27;;;7.20;;
20322;SDS011;10319;52.206;20.996;2023-03-01T11:17:18;19.47;;;6.50;;
20322;SDS011;10319;52.206;20.996;2023-03-01T11:20:29;20.10;;;7.30;;
20322;SDS011;10319;52.206;20.996;2023-03-01T11:22:34;19.37;;;6.30;;
20322;SDS011;10319;52.206;20.996;2023-03-01T11:25:00;20.37;;;6.97;;
20322;SDS011;10319;52.206;20.996;2023-03-01T11:27:27;19.73;;;6.63;;
20322;SDS011;10319;52.206;20.996;2023-03-01T11:30:00;20.13;;;7.00;;
20322;SDS011;10319;52.206;20.996;2023-03-01T11:32:27;18.90;;;6.20;;
20322;SDS011;10319;52.206;20.996;2023-03-01T11:35:00;18.27;;;6.37;;
20322;SDS011;10319;52.206;20.996;2023-03-01T11:38:28;20.63;;;7.03;;
20322;SDS011;10319;52.206;20.996;2023-03-01T11:40:25;19.20;;;5.97;;
20322;SDS011;10319;52.206;20.996;2023-03-01T11:45:19;19.37;;;6.60;;
20322;SDS011;10319;52.206;20.996;2023-03-01T12:03:28;18.80;;;6.53;;
20322;SDS011;10319;52.206;20.996;2023-03-01T12:16:27;18.10;;;6.40;;
20322;SDS011;10319;52.206;20.996;2023-03-01T12:18:59;19.73;;;6.57;;
20322;SDS011;10319;52.206;20.996;2023-03-01T12:21:46;17.60;;;6.43;;
20322;SDS011;10319;52.206;20.996;2023-03-01T12:24:23;20.20;;;6.60;;
20322;SDS011;10319;52.206;20.996;2023-03-01T12:29:41;15.80;;;5.80;;
20322;SDS011;10319;52.206;20.996;2023-03-01T12:45:31;17.00;;;6.07;;
20322;SDS011;10319;52.206;20.996;2023-03-01T12:50:57;17.93;;;5.97;;
20322;SDS011;10319;52.206;20.996;2023-03-01T12:56:31;16.60;;;6.17;;
20322;SDS011;10319;52.206;20.996;2023-03-01T13:01:40;21.00;;;7.03;;
20322;SDS011;10319;52.206;20.996;2023-03-01T13:04:12;19.13;;;6.50;;
20322;SDS011;10319;52.206;20.996;2023-03-01T13:11:41;18.83;;;6.75;;
20322;SDS011;10319;52.206;20.996;2023-03-01T13:16:51;19.45;;;7.10;;
20322;SDS011;10319;52.206;20.996;2023-03-01T13:21:43;17.67;;;6.40;;
20322;SDS011;10319;52.206;20.996;2023-03-01T13:29:53;15.60;;;5.95;;
20322;SDS011;10319;52.206;20.996;2023-03-01T13:32:24;17.07;;;5.80;;
20322;SDS011;10319;52.206;20.996;2023-03-01T13:34:50;14.97;;;5.53;;
20322;SDS011;10319;52.206;20.996;2023-03-01T13:37:35;17.80;;;6.70;;
20322;SDS011;10319;52.206;20.996;2023-03-01T13:40:05;18.57;;;7.00;;
20322;SDS011;10319;52.206;20.996;2023-03-01T13:45:00;18.10;;;6.47;;
20322;SDS011;10319;52.206;20.996;2023-03-01T13:47:26;18.00;;;6.13;;
20322;SDS011;10319;52.206;20.996;2023-03-01T13:52:43;16.47;;;6.13;;
20322;SDS011;10319;52.206;20.996;2023-03-01T13:57:57;16.87;;;6.40;;
20322;SDS011;10319;52.206;20.996;2023-03-01T14:03:03;18.27;;;6.80;;
20322;SDS011;10319;52.206;20.996;2023-03-01T14:05:31;18.63;;;6.33;;
20322;SDS011;10319;52.206;20.996;2023-03-01T14:07:57;19.20;;;6.87;;
20322;SDS011;10319;52.206;20.996;2023-03-01T14:10:31;17.97;;;6.73;;
20322;SDS011;10319;52.206;20.996;2023-03-01T14:16:00;17.50;;;6.70;;
20322;SDS011;10319;52.206;20.996;2023-03-01T14:19:30;17.17;;;6.03;;
20322;SDS011;10319;52.206;20.996;2023-03-01T14:21:24;18.63;;;6.13;;
20322;SDS011;10319;52.206;20.996;2023-03-01T14:23:50;18.33;;;6.67;;
20322;SDS011;10319;52.206;20.996;2023-03-01T14:26:19;17.37;;;6.57;;
20322;SDS011;10319;52.206;20.996;2023-03-01T14:28:45;18.20;;;7.00;;
20322;SDS011;10319;52.206;20.996;2023-03-01T14:33:56;15.95;;;5.88;;
20322;SDS011;10319;52.206;20.996;2023-03-01T14:36:25;15.02;;;5.45;;
20322;SDS011;10319;52.206;20.996;2023-03-01T14:38:51;17.77;;;5.60;;
20322;SDS011;10319;52.206;20.996;2023-03-01T14:41:20;17.20;;;5.68;;
20322;SDS011;10319;52.206;20.996;2023-03-01T14:43:55;16.67;;;5.82;;
20322;SDS011;10319;52.206;20.996;2023-03-01T14:49:09;17.30;;;6.33;;
20322;SDS011;10319;52.206;20.996;2023-03-01T14:51:37;16.33;;;6.30;;
20322;SDS011;10319;52.206;20.996;2023-03-01T14:54:02;16.70;;;6.17;;
20322;SDS011;10319;52.206;20.996;2023-03-01T14:56:28;19.83;;;7.20;;
20322;SDS011;10319;52.206;20.996;2023-03-01T14:59:07;18.73;;;6.67;;
20322;SDS011;10319;52.206;20.996;2023-03-01T15:01:34;19.47;;;6.70;;
20322;SDS011;10319;52.206;20.996;2023-03-01T15:04:01;18.47;;;6.03;;
20322;SDS011;10319;52.206;20.996;2023-03-01T15:06:27;17.80;;;6.37;;
20322;SDS011;10319;52.206;20.996;2023-03-01T15:08:53;16.93;;;6.30;;
20322;SDS011;10319;52.206;20.996;2023-03-01T15:11:29;17.57;;;6.50;;
20322;SDS011;10319;52.206;20.996;2023-03-01T15:13:55;18.70;;;6.30;;
20322;SDS011;10319;52.206;20.996;2023-03-01T15:16:33;19.07;;;6.50;;
20322;SDS011;10319;52.206;20.996;2023-03-01T15:19:05;18.30;;;6.63;;
20322;SDS011;10319;52.206;20.996;2023-03-01T15:21:42;19.03;;;7.03;;
20322;SDS011;10319;52.206;20.996;2023-03-01T15:26:44;20.30;;;7.37;;
20322;SDS011;10319;52.206;20.996;2023-03-01T15:29:22;18.70;;;6.63;;
20322;SDS011;10319;52.206;20.996;2023-03-01T15:32:01;18.80;;;6.50;;
20322;SDS011;10319;52.206;20.996;2023-03-01T15:34:29;19.13;;;7.40;;
20322;SDS011;10319;52.206;20.996;2023-03-01T15:36:59;20.90;;;7.13;;
20322;SDS011;10319;52.206;20.996;2023-03-01T15:42:06;22.50;;;8.30;;
20322;SDS011;10319;52.206;20.996;2023-03-01T15:44:33;20.53;;;7.40;;
20322;SDS011;10319;52.206;20.996;2023-03-01T15:46:59;22.07;;;7.90;;
20322;SDS011;10319;52.206;20.996;2023-03-01T15:49:41;22.23;;;7.97;;
20322;SDS011;10319;52.206;20.996;2023-03-01T15:52:12;23.20;;;8.70;;
20322;SDS011;10319;52.206;20.996;2023-03-01T15:54:38;21.03;;;7.43;;
20322;SDS011;10319;52.206;20.996;2023-03-01T15:57:05;22.77;;;7.53;;
20322;SDS011;10319;52.206;20.996;2023-03-01T15:59:30;21.30;;;7.30;;
20322;SDS011;10319;52.206;20.996;2023-03-01T16:01:55;20.90;;;7.70;;
20322;SDS011;10319;52.206;20.996;2023-03-01T16:04:21;19.73;;;7.47;;
20322;SDS011;10319;52.206;20.996;2023-03-01T16:06:47;21.97;;;7.67;;
20322;SDS011;10319;52.206;20.996;2023-03-01T16:09:19;21.00;;;7.70;;
20322;SDS011;10319;52.206;20.996;2023-03-01T16:11:47;22.50;;;8.37;;
20322;SDS011;10319;52.206;20.996;2023-03-01T16:14:13;22.57;;;8.57;;
20322;SDS011;10319;52.206;20.996;2023-03-01T16:16:38;26.70;;;9.30;;
20322;SDS011;10319;52.206;20.996;2023-03-01T16:19:04;23.07;;;8.40;;
20322;SDS011;10319;52.206;20.996;2023-03-01T16:21:29;21.77;;;7.87;;
20322;SDS011;10319;52.206;20.996;2023-03-01T16:23:55;23.97;;;9.10;;